Martha's Vineyard, Massachusetts
Current Conditions -  °F | °C
As of 1:53 AM on Saturday 25 Oct 2014 (Local Time) from KMVY Reporting Station
Overcast Overcast  
Wind Chill: 50°   Ceiling: 2300
Heat Index: 50°   Visibility: 10mi
Dew Point: 42°   Wind: 15mph
Humidity: 74%   Direction: 330°NNW
Pressure: 29.74"   Gusts: 20mph
Location:  41.39°N, 70.61°W
Report Text: KMVY 250553Z AUTO 33013G17KT 10SM OVC023 10/06 A2974 RMK AO2 SLP072 T01000056 10111 20100 50003
Loading
Personal Weather Stations






























Interactive Weather Map
Tropical Storm Tracking
New forecast layout! Learn more

10-Day Weather Forecast

Advertisements
Track Severe Weather on mobile